Time;durP1;ratioP1;P1;durP2;ratioP2;P2;SDS_P1;SDS_P2;PMS_P1;PMS_P2;Temp;Humidity;BMP_temperature;BMP_pressure;BME280_temperature;BME280_humidity;BME280_pressure;Samples;Min_cycle;Max_cycle;Signal;HPM_P1;HPM_P2
2022/05/13 00:02:08;;;;;;;;;1.50;1.50;;;;;14.07;49.75;101309.06;4959097;28;45370;-73
2022/05/13 00:04:33;;;;;;;;;1.75;1.50;;;;;14.03;49.62;101302.19;4958716;28;45461;-74
2022/05/13 00:06:59;;;;;;;;;4.50;3.00;;;;;13.98;49.63;101304.16;4958891;28;45433;-75
2022/05/13 00:09:56;;;;;;;;;2.00;2.00;;;;;13.98;49.42;101298.88;4959091;28;45457;-74
2022/05/13 00:12:11;;;;;;;;;3.00;1.25;;;;;13.97;49.21;101303.28;4961081;28;45330;-76
2022/05/13 00:14:36;;;;;;;;;5.00;5.00;;;;;13.93;49.49;101304.34;4962485;28;45333;-75
2022/05/13 00:17:02;;;;;;;;;3.75;3.75;;;;;13.91;49.69;101310.63;4962362;28;45709;-74
2022/05/13 00:19:27;;;;;;;;;4.00;4.00;;;;;13.88;49.82;101307.19;4961943;28;45203;-74
2022/05/13 00:21:52;;;;;;;;;7.00;4.50;;;;;13.86;49.71;101316.09;4960446;28;45406;-74
2022/05/13 00:24:18;;;;;;;;;2.50;2.50;;;;;13.82;49.62;101311.88;4942174;28;45665;-73
2022/05/13 00:26:43;;;;;;;;;5.00;5.00;;;;;13.77;49.72;101314.69;4959324;28;45338;-74
2022/05/13 00:29:08;;;;;;;;;5.25;5.25;;;;;13.77;49.74;101314.69;4959261;28;45183;-73
2022/05/13 00:31:34;;;;;;;;;8.75;5.25;;;;;13.71;49.65;101305.25;4958507;28;46157;-73
2022/05/13 00:33:59;;;;;;;;;6.00;4.25;;;;;13.63;49.81;101301.19;4959306;28;45168;-74
2022/05/13 00:36:25;;;;;;;;;3.25;3.00;;;;;13.69;49.97;101306.22;4959562;28;45275;-74
2022/05/13 00:38:51;;;;;;;;;2.50;2.50;;;;;13.67;49.95;101303.66;4958776;28;45545;-74
2022/05/13 00:41:16;;;;;;;;;6.25;3.00;;;;;13.65;49.79;101307.28;4958660;28;45197;-74
2022/05/13 00:43:52;;;;;;;;;2.75;2.75;;;;;13.62;50.12;101299.47;4959213;28;45368;-73
2022/05/13 00:46:20;;;;;;;;;1.00;1.00;;;;;13.57;50.18;101307.63;4958091;28;45434;-74
2022/05/13 00:48:46;;;;;;;;;1.00;1.00;;;;;13.53;50.06;101298.09;4959972;28;45329;-73
2022/05/13 00:51:15;;;;;;;;;1.50;1.50;;;;;13.52;49.88;101299.03;4959516;28;45431;-75
2022/05/13 00:53:40;;;;;;;;;2.25;0.50;;;;;13.52;50.25;101309.59;4958197;28;45240;-75
2022/05/13 00:56:06;;;;;;;;;1.75;1.00;;;;;13.44;49.65;101291.38;4963140;28;45414;-74
2022/05/13 00:58:35;;;;;;;;;1.00;1.00;;;;;13.44;50.23;101296.66;4962069;28;45302;-74
2022/05/13 01:01:01;;;;;;;;;3.00;2.00;;;;;13.34;50.00;101288.25;4958524;28;48350;-74
2022/05/13 01:03:26;;;;;;;;;1.00;1.00;;;;;13.41;50.14;101308.22;4959076;28;45263;-74
2022/05/13 01:05:57;;;;;;;;;1.50;1.00;;;;;13.20;49.88;101277.34;4941629;28;45325;-75
2022/05/13 01:08:23;;;;;;;;;2.25;0.25;;;;;13.36;49.85;101309.31;4958529;28;45500;-73
2022/05/13 01:10:50;;;;;;;;;1.00;1.00;;;;;13.27;50.40;101297.34;4957887;28;46755;-73
2022/05/13 01:13:22;;;;;;;;;0.00;0.00;;;;;13.29;50.25;101304.28;4957929;28;45451;-74
2022/05/13 01:15:49;;;;;;;;;1.25;1.25;;;;;13.26;50.29;101301.75;4959793;28;45521;-75
2022/05/13 01:18:34;;;;;;;;;1.75;1.00;;;;;13.27;50.45;101311.41;4959948;28;45572;-74
2022/05/13 01:21:00;;;;;;;;;2.00;1.00;;;;;13.25;50.96;101312.38;4958740;28;45347;-75
2022/05/13 01:23:32;;;;;;;;;0.25;0.25;;;;;13.12;51.01;101298.81;4957944;28;45370;-74
2022/05/13 01:26:05;;;;;;;;;2.00;1.00;;;;;13.16;51.07;101313.59;4957839;28;45279;-73
2022/05/13 01:28:39;;;;;;;;;2.25;1.00;;;;;13.15;51.10;101317.16;4958128;28;45401;-73
2022/05/13 01:31:09;;;;;;;;;2.25;1.00;;;;;13.09;51.15;101309.50;4957530;28;46345;-74
2022/05/13 01:33:37;;;;;;;;;2.50;1.00;;;;;13.11;51.45;101312.94;4957932;28;45375;-73
2022/05/13 01:36:05;;;;;;;;;2.00;0.00;;;;;13.07;51.30;101311.31;4959118;28;45326;-73
2022/05/13 01:38:33;;;;;;;;;1.00;1.00;;;;;13.04;51.52;101322.84;4960406;28;45188;-74
2022/05/13 01:41:01;;;;;;;;;3.00;1.75;;;;;13.02;51.53;101323.84;4959047;28;45384;-74
2022/05/13 01:43:27;;;;;;;;;0.00;0.00;;;;;12.89;51.77;101316.41;4943150;28;45475;-73
2022/05/13 01:45:53;;;;;;;;;1.00;1.00;;;;;12.98;52.06;101326.63;4956968;28;45361;-74
2022/05/13 01:48:19;;;;;;;;;1.00;1.00;;;;;12.95;52.20;101323.22;4959069;28;45309;-74
2022/05/13 01:50:44;;;;;;;;;3.25;1.00;;;;;12.94;52.15;101324.13;4962174;28;45343;-75
2022/05/13 01:53:10;;;;;;;;;1.00;1.00;;;;;12.89;52.36;101320.81;4944023;28;45266;-72
2022/05/13 01:55:42;;;;;;;;;0.00;0.00;;;;;12.88;52.66;101314.69;4957965;28;45318;-74
2022/05/13 01:58:07;;;;;;;;;2.00;0.00;;;;;12.85;52.67;101320.94;4960045;28;45379;-74
2022/05/13 02:00:33;;;;;;;;;1.50;1.00;;;;;12.76;53.01;101308.06;4957214;28;45403;-74
2022/05/13 02:05:42;;;;;;;;;0.25;0.25;;;;;12.71;53.65;101316.16;4957760;28;45464;-73
2022/05/13 02:08:07;;;;;;;;;0.75;0.75;;;;;12.71;53.77;101308.22;4955744;28;45560;-73
2022/05/13 02:10:34;;;;;;;;;5.00;3.75;;;;;12.53;54.06;101287.81;4957534;28;46966;-74
2022/05/13 02:12:59;;;;;;;;;6.75;3.25;;;;;12.67;53.78;101311.06;4960832;28;45185;-73
2022/05/13 02:15:25;;;;;;;;;7.00;4.00;;;;;12.63;53.84;101305.03;4958005;28;45226;-73
2022/05/13 02:17:51;;;;;;;;;6.00;4.25;;;;;12.65;54.21;101313.75;4958457;28;45504;-73
2022/05/13 02:20:16;;;;;;;;;5.50;5.50;;;;;12.63;54.20;101317.38;4958403;28;46404;-74
2022/05/13 02:22:41;;;;;;;;;7.00;6.00;;;;;12.59;54.52;101306.06;4960693;28;45270;-73
2022/05/13 02:25:08;;;;;;;;;11.50;9.25;;;;;12.53;54.72;101299.25;4961385;28;45322;-72
2022/05/13 02:27:33;;;;;;;;;10.25;8.75;;;;;12.61;54.67;101319.22;4962619;28;45428;-75
2022/05/13 02:29:58;;;;;;;;;13.50;12.25;;;;;12.59;54.57;101307.84;4961780;28;45892;-74
2022/05/13 02:32:24;;;;;;;;;11.25;11.25;;;;;12.61;54.99;101319.22;4960791;28;45402;-72
2022/05/13 02:34:49;;;;;;;;;10.75;9.50;;;;;12.62;54.91;101319.13;4960630;28;45350;-74
2022/05/13 02:37:15;;;;;;;;;10.00;10.00;;;;;12.64;55.25;101319.09;4961305;28;45515;-75
2022/05/13 02:39:40;;;;;;;;;18.00;14.25;;;;;12.61;55.21;101309.50;4962230;28;45788;-73
2022/05/13 02:42:06;;;;;;;;;13.00;12.00;;;;;12.48;55.18;101276.56;4960689;28;45320;-72
2022/05/13 02:44:31;;;;;;;;;13.00;12.25;;;;;12.68;55.36;101304.88;4960234;28;45472;-72
2022/05/13 02:46:56;;;;;;;;;13.75;13.75;;;;;12.72;55.02;101309.09;4960491;28;45436;-73
2022/05/13 02:49:22;;;;;;;;;13.75;12.50;;;;;12.65;55.27;101308.47;4945566;28;46244;-74
2022/05/13 02:51:49;;;;;;;;;14.25;11.25;;;;;12.69;55.10;101320.63;4960643;28;45349;-73
2022/05/13 02:54:16;;;;;;;;;13.25;11.00;;;;;12.32;55.36;101253.38;4960683;28;45247;-74
2022/05/13 02:56:41;;;;;;;;;10.50;10.50;;;;;12.67;55.33;101322.47;4960461;28;45242;-73
2022/05/13 02:59:07;;;;;;;;;10.00;9.50;;;;;12.61;55.47;101309.50;4961875;28;45258;-74
2022/05/13 03:01:41;;;;;;;;;10.75;9.00;;;;;12.62;54.85;101315.66;4962660;28;45416;-74
2022/05/13 03:04:07;;;;;;;;;6.00;6.00;;;;;12.61;55.27;101316.56;4960697;28;45192;-73
2022/05/13 03:06:32;;;;;;;;;8.50;6.75;;;;;12.48;55.32;101295.03;4960024;28;45323;-72
2022/05/13 03:08:58;;;;;;;;;5.00;5.00;;;;;12.55;55.95;101320.28;4959516;28;45357;-73
2022/05/13 03:11:24;;;;;;;;;3.25;3.25;;;;;12.49;55.53;101315.22;4960901;28;45509;-73
2022/05/13 03:13:51;;;;;;;;;4.00;4.00;;;;;12.50;56.38;101316.94;4960362;28;45475;-72
2022/05/13 03:16:20;;;;;;;;;3.50;3.50;;;;;12.48;56.15;101316.16;4963358;28;45489;-73
2022/05/13 03:18:47;;;;;;;;;3.00;3.00;;;;;12.28;56.26;101291.34;4960127;28;45286;-74
2022/05/13 03:21:12;;;;;;;;;3.50;3.50;;;;;12.40;56.60;101313.81;4964134;28;45302;-74
2022/05/13 03:23:42;;;;;;;;;7.50;3.00;;;;;12.42;56.57;101312.81;4960285;28;45499;-73
2022/05/13 03:26:09;;;;;;;;;3.00;3.00;;;;;12.42;56.39;101307.53;4960034;28;45294;-74
2022/05/13 03:28:34;;;;;;;;;3.75;2.00;;;;;12.40;56.99;101304.09;4944364;28;46448;-73
2022/05/13 03:30:59;;;;;;;;;3.00;2.00;;;;;12.47;57.28;101306.50;4959724;28;45385;-72
2022/05/13 03:33:25;;;;;;;;;5.00;3.00;;;;;12.41;56.86;101289.13;4958740;28;45193;-74
2022/05/13 03:35:50;;;;;;;;;3.00;3.00;;;;;12.54;57.30;101302.72;4959993;28;45236;-75
2022/05/13 03:38:16;;;;;;;;;4.00;1.00;;;;;12.61;56.83;101306.84;4959714;28;45354;-74
2022/05/13 03:40:41;;;;;;;;;4.00;2.00;;;;;12.68;57.13;101303.06;4960032;28;45333;-74
2022/05/13 03:43:07;;;;;;;;;2.50;2.50;;;;;12.67;57.21;101314.53;4962285;28;45175;-73
2022/05/13 03:45:34;;;;;;;;;2.00;2.00;;;;;12.61;57.40;101308.66;4960097;28;45370;-74
2022/05/13 03:48:00;;;;;;;;;4.25;3.00;;;;;12.62;57.13;101311.22;4959122;28;46103;-74
2022/05/13 03:50:27;;;;;;;;;4.00;2.50;;;;;12.56;57.42;101303.53;4959350;28;45440;-74
2022/05/13 03:52:53;;;;;;;;;4.00;4.00;;;;;12.57;57.52;101313.16;4959600;28;45362;-74
2022/05/13 03:55:18;;;;;;;;;2.75;2.75;;;;;12.54;57.84;101313.28;4943216;28;45578;-74
2022/05/13 03:57:44;;;;;;;;;2.00;2.00;;;;;12.21;57.82;101271.38;4960757;28;45423;-74
2022/05/13 04:00:11;;;;;;;;;2.50;2.50;;;;;12.37;58.23;101298.94;4959586;28;45220;-74
2022/05/13 04:02:37;;;;;;;;;6.00;3.00;;;;;12.36;58.44;101301.63;4962416;28;45311;-74
2022/05/13 04:10:35;;;;;;;;;2.75;2.00;;;;;12.41;58.23;101315.53;4959542;28;45393;-73
2022/05/13 04:18:29;;;;;;;;;3.25;3.25;;;;;12.47;59.70;101322.34;4962256;28;45369;-76
2022/05/13 04:20:55;;;;;;;;;4.00;4.00;;;;;12.40;59.36;101317.28;4960398;28;45425;-73
2022/05/13 04:23:20;;;;;;;;;6.75;4.00;;;;;12.47;59.44;101323.22;4964341;28;45417;-73
2022/05/13 04:25:46;;;;;;;;;3.00;3.00;;;;;12.47;59.36;101327.63;4961643;28;45395;-73
2022/05/13 04:28:11;;;;;;;;;6.50;4.00;;;;;12.46;60.08;101326.78;4943901;28;47707;-74
2022/05/13 04:30:37;;;;;;;;;4.25;2.25;;;;;12.41;60.11;101326.94;4960119;28;45445;-74
2022/05/13 04:33:03;;;;;;;;;3.00;3.00;;;;;12.46;60.44;101341.72;4959753;28;45307;-76
2022/05/13 04:35:28;;;;;;;;;2.00;2.00;;;;;12.36;60.57;101317.47;4961176;28;45450;-73
2022/05/13 04:37:54;;;;;;;;;1.00;1.00;;;;;12.45;61.05;101334.72;4960141;28;45843;-75
2022/05/13 04:40:19;;;;;;;;;3.00;3.00;;;;;12.34;61.09;101328.06;4960940;28;45307;-75
2022/05/13 04:42:50;;;;;;;;;3.50;3.00;;;;;12.47;61.47;101351.38;4960002;28;45338;-74
2022/05/13 04:45:26;;;;;;;;;3.75;3.00;;;;;12.46;61.52;101339.09;4944440;28;45344;-75
2022/05/13 04:48:15;;;;;;;;;5.00;3.00;;;;;12.47;61.36;101332.91;4959614;28;46462;-74
2022/05/13 04:50:43;;;;;;;;;5.50;2.00;;;;;12.44;61.57;101335.66;4958459;28;45314;-74
2022/05/13 04:53:10;;;;;;;;;4.00;4.00;;;;;12.45;62.11;101343.53;4940810;28;45347;-74
2022/05/13 04:55:36;;;;;;;;;3.25;3.25;;;;;12.42;61.79;101333.94;4958767;28;45473;-74
2022/05/13 04:58:03;;;;;;;;;2.75;2.75;;;;;12.44;62.51;101340.91;4958480;28;45379;-73
2022/05/13 05:00:29;;;;;;;;;4.75;3.25;;;;;12.41;62.09;101329.56;4958786;28;45345;-74
2022/05/13 05:02:55;;;;;;;;;3.50;3.50;;;;;12.50;61.94;101344.22;4942029;28;45363;-75
2022/05/13 05:05:21;;;;;;;;;5.75;3.50;;;;;12.55;61.94;101354.59;4963739;28;45241;-73
2022/05/13 05:07:46;;;;;;;;;2.00;2.00;;;;;12.61;61.84;101359.66;4961851;28;46278;-74
2022/05/13 05:10:11;;;;;;;;;3.50;3.50;;;;;12.73;61.96;101361.00;4959529;28;50704;-74
2022/05/13 05:12:38;;;;;;;;;3.75;3.50;;;;;12.89;61.44;101366.56;4958210;28;45507;-74
2022/05/13 05:15:05;;;;;;;;;4.00;3.25;;;;;13.06;61.04;101371.19;4958860;28;45337;-74
2022/05/13 05:17:30;;;;;;;;;1.00;0.50;;;;;13.22;60.53;101368.84;4958207;28;46585;-74
2022/05/13 05:19:56;;;;;;;;;4.25;3.00;;;;;13.37;60.24;101363.88;4941328;28;45333;-74
2022/05/13 05:22:22;;;;;;;;;5.00;3.00;;;;;13.45;60.09;101359.19;4960246;28;45863;-74
2022/05/13 05:24:47;;;;;;;;;5.25;3.50;;;;;13.53;59.99;101364.16;4961127;28;45290;-75
2022/05/13 05:27:13;;;;;;;;;5.25;4.00;;;;;13.59;59.60;101370.06;4961186;28;46333;-73
2022/05/13 05:29:38;;;;;;;;;5.50;5.50;;;;;13.63;59.57;101376.09;4957379;28;45499;-74
2022/05/13 05:32:04;;;;;;;;;8.50;4.00;;;;;13.68;59.20;101382.06;4957166;28;45398;-75
2022/05/13 05:34:30;;;;;;;;;3.00;3.00;;;;;13.71;58.92;101386.34;4957599;28;45326;-75
2022/05/13 05:36:55;;;;;;;;;5.00;3.25;;;;;13.73;59.25;101382.72;4940192;28;46373;-74
2022/05/13 05:39:21;;;;;;;;;5.75;3.25;;;;;13.81;59.20;101386.84;4957229;28;45225;-73
2022/05/13 05:41:47;;;;;;;;;5.50;4.75;;;;;13.75;58.91;101372.06;4957491;28;45367;-74
2022/05/13 05:44:12;;;;;;;;;3.50;3.50;;;;;13.79;59.01;101393.97;4956055;28;45538;-73
2022/05/13 05:46:38;;;;;;;;;5.00;4.00;;;;;13.74;59.12;101391.50;4957756;28;46197;-73
2022/05/13 05:49:04;;;;;;;;;3.00;3.00;;;;;13.64;58.76;101384.88;4955460;28;45436;-73
2022/05/13 05:51:29;;;;;;;;;3.50;3.50;;;;;13.56;58.81;101383.41;4956651;28;45360;-73
2022/05/13 05:59:24;;;;;;;;;5.00;3.00;;;;;13.51;58.06;101403.88;4959948;28;45244;-75
2022/05/13 06:01:50;;;;;;;;;3.00;1.50;;;;;13.50;58.29;101404.78;4961438;28;45293;-74
2022/05/13 06:04:15;;;;;;;;;8.00;5.00;;;;;13.50;58.23;101403.94;4961906;28;45346;-75
2022/05/13 06:06:40;;;;;;;;;5.50;3.00;;;;;13.49;58.36;101405.72;4960876;28;46523;-73
2022/05/13 06:09:08;;;;;;;;;7.00;5.50;;;;;13.43;58.30;101404.19;4966153;28;45334;-74
2022/05/13 06:11:34;;;;;;;;;5.25;3.00;;;;;13.42;58.51;101405.09;4962505;28;45257;-74
2022/05/13 06:13:59;;;;;;;;;4.75;3.25;;;;;13.43;58.26;101419.16;4959026;28;45271;-73
2022/05/13 06:16:27;;;;;;;;;5.75;5.75;;;;;13.42;58.70;101426.25;4959395;28;45255;-74
2022/05/13 06:18:54;;;;;;;;;7.50;7.50;;;;;13.39;58.56;101412.25;4942057;28;45393;-74
2022/05/13 06:21:20;;;;;;;;;7.50;7.50;;;;;13.46;58.34;101423.47;4959297;28;45401;-74
2022/05/13 06:23:45;;;;;;;;;5.00;5.00;;;;;13.47;58.50;101420.75;4959453;28;45566;-75
2022/05/13 06:26:11;;;;;;;;;6.00;6.00;;;;;13.49;58.36;101421.56;4960586;28;45271;-77
2022/05/13 06:28:37;;;;;;;;;7.00;5.75;;;;;13.52;58.36;101432.00;4944758;28;45643;-74
2022/05/13 06:31:02;;;;;;;;;7.25;6.25;;;;;13.53;58.38;101425.81;4961843;28;45256;-75
2022/05/13 06:33:28;;;;;;;;;9.75;6.50;;;;;13.61;58.06;101430.81;4959876;28;45450;-75
2022/05/13 06:35:53;;;;;;;;;5.00;5.00;;;;;13.42;57.66;101391.00;4941070;28;47359;-74
2022/05/13 06:38:22;;;;;;;;;7.75;5.25;;;;;13.58;57.37;101412.44;4958647;28;45156;-75
2022/05/13 06:40:48;;;;;;;;;7.00;7.00;;;;;13.73;57.52;101440.03;4958930;28;45417;-74
2022/05/13 06:43:14;;;;;;;;;4.00;3.75;;;;;13.49;57.07;101392.50;4958372;28;45371;-74
2022/05/13 06:45:41;;;;;;;;;3.00;3.00;;;;;13.80;56.72;101436.25;4958282;28;46003;-75
2022/05/13 06:48:07;;;;;;;;;2.00;2.00;;;;;13.85;56.49;101438.69;4958959;28;45407;-74
2022/05/13 06:50:32;;;;;;;;;3.00;3.00;;;;;13.93;55.96;101451.59;4945275;28;45313;-75
2022/05/13 06:52:58;;;;;;;;;4.25;4.25;;;;;13.99;55.57;101452.19;4961465;28;45274;-76
2022/05/13 06:55:24;;;;;;;;;4.50;2.50;;;;;14.05;55.24;101448.47;4960017;28;45331;-74
2022/05/13 06:57:49;;;;;;;;;4.00;2.00;;;;;14.10;54.32;101456.19;4960065;28;45238;-74
2022/05/13 07:00:15;;;;;;;;;5.25;3.50;;;;;14.15;54.83;101451.56;4943352;28;45486;-75
2022/05/13 07:02:41;;;;;;;;;21.75;21.25;;;;;14.20;54.09;101454.88;4958902;28;45657;-74
2022/05/13 07:05:10;;;;;;;;;5.50;3.00;;;;;14.26;53.83;101457.28;4940637;28;47259;-73
2022/05/13 07:07:35;;;;;;;;;2.25;2.25;;;;;14.35;53.46;101452.56;4957646;28;45326;-75
2022/05/13 07:10:01;;;;;;;;;4.00;2.00;;;;;14.40;53.20;101453.22;4960790;28;45345;-74
2022/05/13 07:12:27;;;;;;;;;4.25;3.00;;;;;14.48;53.07;101452.88;4960355;28;45513;-76
2022/05/13 07:14:53;;;;;;;;;1.75;1.75;;;;;14.52;52.72;101446.53;4958124;28;46112;-75
2022/05/13 07:17:19;;;;;;;;;1.75;1.75;;;;;14.61;51.88;101451.41;4959190;28;45434;-75
2022/05/13 07:19:45;;;;;;;;;7.00;2.00;;;;;14.67;51.32;101452.94;4958661;28;45216;-74
2022/05/13 07:22:10;;;;;;;;;0.00;0.00;;;;;14.72;50.67;101458.94;4958311;28;45554;-74
2022/05/13 07:24:36;;;;;;;;;1.25;1.00;;;;;14.70;50.88;101453.69;4957530;28;45387;-73
2022/05/13 07:27:03;;;;;;;;;4.00;3.00;;;;;14.71;50.83;101436.88;4956903;28;45273;-74
2022/05/13 07:29:30;;;;;;;;;3.50;3.00;;;;;14.89;50.72;101451.09;4958330;28;45478;-75
2022/05/13 07:31:55;;;;;;;;;2.00;2.00;;;;;14.99;50.39;101456.88;4960454;28;45501;-75
2022/05/13 07:34:22;;;;;;;;;2.50;2.50;;;;;15.03;50.35;101449.63;4959148;28;45355;-75
2022/05/13 07:36:48;;;;;;;;;2.00;2.00;;;;;15.07;50.20;101445.91;4958736;28;45488;-75
2022/05/13 07:41:59;;;;;;;;;2.75;2.75;;;;;15.21;49.24;101452.38;4958231;28;45332;-75
2022/05/13 07:44:24;;;;;;;;;6.75;5.00;;;;;15.28;49.44;101461.75;4958065;28;46080;-74
2022/05/13 07:46:51;;;;;;;;;4.00;4.00;;;;;15.31;49.62;101464.25;4959039;28;45245;-75
2022/05/13 07:49:17;;;;;;;;;5.50;4.50;;;;;15.39;49.55;101458.63;4958413;28;45439;-76
2022/05/13 07:51:42;;;;;;;;;5.00;3.00;;;;;15.46;49.23;101460.06;4959664;28;45281;-75
2022/05/13 07:54:08;;;;;;;;;6.25;4.00;;;;;15.54;48.95;101462.34;4959287;28;46084;-75
2022/05/13 07:56:33;;;;;;;;;3.50;3.50;;;;;15.55;48.05;101449.00;4957557;28;45405;-75
2022/05/13 07:59:02;;;;;;;;;5.00;4.00;;;;;15.67;48.55;101466.16;4957500;28;45331;-76
2022/05/13 08:01:27;;;;;;;;;3.00;2.50;;;;;15.73;48.45;101468.50;4939939;28;45311;-75
2022/05/13 08:03:52;;;;;;;;;6.50;5.00;;;;;15.79;48.64;101459.38;4939238;28;47240;-74
2022/05/13 08:06:18;;;;;;;;;5.00;5.00;;;;;15.97;48.33;101460.31;4957010;28;45378;-74
2022/05/13 08:08:46;;;;;;;;;5.00;3.50;;;;;16.02;48.12;101454.81;4955614;28;45240;-74
2022/05/13 08:11:14;;;;;;;;;3.00;3.00;;;;;16.09;47.86;101455.34;4957025;28;45182;-74
2022/05/13 08:13:41;;;;;;;;;5.75;4.00;;;;;16.09;47.97;101460.66;4960052;28;46229;-75
2022/05/13 08:16:10;;;;;;;;;6.50;4.00;;;;;16.13;47.90;101457.78;4957608;28;45289;-74
2022/05/13 08:18:37;;;;;;;;;2.75;1.25;;;;;16.20;46.42;101456.53;4957549;28;45313;-75
2022/05/13 08:21:02;;;;;;;;;2.25;2.25;;;;;16.18;46.58;101442.47;4958108;28;45597;-76
2022/05/13 08:23:28;;;;;;;;;2.75;2.75;;;;;16.18;47.34;101428.34;4957460;28;45427;-74
2022/05/13 08:25:54;;;;;;;;;4.75;4.00;;;;;16.37;47.43;101460.13;4957462;28;45362;-74
2022/05/13 08:28:22;;;;;;;;;3.00;2.50;;;;;16.43;47.31;101458.94;4957356;28;45306;-75
2022/05/13 08:30:48;;;;;;;;;3.00;3.00;;;;;16.51;47.27;101459.44;4958398;28;45535;-75
2022/05/13 08:33:13;;;;;;;;;4.00;3.00;;;;;16.58;47.45;101452.88;4959393;28;45387;-75
2022/05/13 08:35:45;;;;;;;;;4.75;3.50;;;;;16.74;47.20;101460.88;4959859;28;45357;-75
2022/05/13 08:38:11;;;;;;;;;2.25;2.25;;;;;16.88;46.69;101459.28;4961022;28;45837;-74
2022/05/13 08:40:54;;;;;;;;;7.75;2.75;;;;;17.01;46.65;101460.44;4960183;28;45476;-75
2022/05/13 08:43:34;;;;;;;;;6.25;4.75;;;;;17.11;46.41;101460.78;4959456;28;45638;-74
2022/05/13 08:46:05;;;;;;;;;2.50;2.50;;;;;17.18;45.01;101471.94;4960261;28;45351;-75
2022/05/13 08:48:34;;;;;;;;;3.00;2.00;;;;;17.13;44.67;101474.84;4960006;28;45283;-76
2022/05/13 08:50:59;;;;;;;;;6.00;4.00;;;;;17.07;45.22;101472.50;4960586;28;45509;-75
2022/05/13 08:53:31;;;;;;;;;4.50;4.00;;;;;17.11;45.21;101470.56;4960383;28;46246;-73
2022/05/13 08:56:05;;;;;;;;;6.25;2.75;;;;;17.15;44.81;101472.97;4942062;28;46748;-74
2022/05/13 08:58:37;;;;;;;;;5.00;3.00;;;;;17.21;45.25;101466.47;4957739;28;45336;-75
2022/05/13 09:01:06;;;;;;;;;2.00;2.00;;;;;17.32;44.19;101469.41;4957186;28;45260;-76
2022/05/13 09:03:53;;;;;;;;;4.00;4.00;;;;;17.42;44.25;101466.22;4958363;28;46798;-75
2022/05/13 09:06:43;;;;;;;;;7.00;5.00;;;;;17.53;44.45;101469.16;4957261;28;45378;-74
2022/05/13 09:09:11;;;;;;;;;4.00;4.00;;;;;17.74;44.49;101460.91;4957566;28;45384;-75
2022/05/13 09:11:46;;;;;;;;;5.75;2.50;;;;;17.96;44.05;101465.88;4940629;28;45375;-75
2022/05/13 09:14:11;;;;;;;;;4.00;2.50;;;;;18.05;42.75;101467.19;4955473;28;47311;-74
2022/05/13 09:17:14;;;;;;;;;3.00;2.50;;;;;18.05;43.04;101462.72;4956556;28;45409;-74
2022/05/13 09:19:45;;;;;;;;;6.50;3.00;;;;;18.10;43.27;101465.97;4958992;28;45357;-75
2022/05/13 09:22:14;;;;;;;;;4.50;4.00;;;;;18.12;43.11;101455.25;4940835;28;45577;-75
2022/05/13 09:24:41;;;;;;;;;3.50;3.50;;;;;18.19;43.55;101475.25;4956856;28;45357;-74
2022/05/13 09:27:06;;;;;;;;;4.00;2.75;;;;;18.20;42.88;101463.63;4959167;28;45385;-74
2022/05/13 09:29:40;;;;;;;;;3.50;2.00;;;;;18.14;42.07;101466.66;4957333;28;45737;-76
2022/05/13 09:32:13;;;;;;;;;4.25;4.25;;;;;18.09;42.08;101466.06;4957663;28;45294;-75
2022/05/13 09:34:49;;;;;;;;;2.50;1.25;;;;;17.92;40.82;101459.00;4957124;28;45982;-75
2022/05/13 09:37:25;;;;;;;;;2.00;2.00;;;;;17.56;41.38;101426.41;4958057;28;45347;-74
2022/05/13 09:40:04;;;;;;;;;2.25;2.25;;;;;17.46;41.61;101409.25;4958153;28;45326;-76
2022/05/13 09:42:43;;;;;;;;;5.25;4.00;;;;;17.81;41.75;101464.94;4959084;28;45333;-75
2022/05/13 09:45:28;;;;;;;;;3.75;2.00;;;;;17.99;41.99;101471.03;4961200;28;45699;-76
2022/05/13 09:48:10;;;;;;;;;7.75;5.00;;;;;18.13;41.60;101467.59;4959897;28;45354;-74
2022/05/13 09:50:50;;;;;;;;;2.00;2.00;;;;;18.09;41.13;101444.78;4960331;28;45403;-77
2022/05/13 09:53:29;;;;;;;;;6.00;4.00;;;;;18.22;41.49;101447.56;4957975;28;45299;-74
2022/05/13 09:56:01;;;;;;;;;2.00;2.00;;;;;18.32;41.01;101458.53;4958290;28;45455;-77
2022/05/13 09:58:35;;;;;;;;;3.00;2.00;;;;;18.24;41.02;101459.84;4957439;28;45336;-75
2022/05/13 10:01:10;;;;;;;;;3.75;1.50;;;;;18.27;40.98;101455.28;4955853;28;45318;-75
2022/05/13 10:03:38;;;;;;;;;5.00;3.75;;;;;18.29;39.67;101450.72;4956031;28;45414;-74
2022/05/13 10:06:10;;;;;;;;;1.75;1.75;;;;;18.29;39.79;101464.03;4956194;28;46236;-76
2022/05/13 10:08:47;;;;;;;;;2.25;2.25;;;;;18.31;40.37;101444.34;4956285;28;45271;-75
2022/05/13 10:14:06;;;;;;;;;5.50;4.00;;;;;18.58;40.37;101443.66;4956003;28;45375;-76
2022/05/13 10:16:39;;;;;;;;;4.50;3.00;;;;;18.76;39.99;101444.34;4955544;28;46134;-75
2022/05/13 10:19:14;;;;;;;;;2.25;1.25;;;;;18.83;38.78;101440.34;4956411;28;45496;-75
2022/05/13 10:21:47;;;;;;;;;2.75;2.75;;;;;18.88;39.32;101449.88;4956210;28;45366;-77
2022/05/13 10:24:44;;;;;;;;;4.25;3.00;;;;;18.95;38.79;101452.06;4956777;28;45475;-74
2022/05/13 10:27:26;;;;;;;;;3.00;2.00;;;;;18.86;38.51;101436.66;4955445;28;45450;-77
2022/05/13 10:30:00;;;;;;;;;2.00;2.00;;;;;18.91;38.54;101439.00;4955344;28;45356;-75
2022/05/13 10:32:42;;;;;;;;;2.00;2.00;;;;;18.93;38.68;101434.44;4956254;28;45315;-75
2022/05/13 10:35:12;;;;;;;;;7.25;4.50;;;;;18.95;38.79;101428.06;4955684;28;45424;-75
2022/05/13 10:38:08;;;;;;;;;3.25;2.00;;;;;18.96;39.20;101429.78;4955586;28;45243;-76
2022/05/13 10:40:41;;;;;;;;;4.00;4.00;;;;;19.09;38.84;101442.38;4955879;28;45436;-76
2022/05/13 10:43:19;;;;;;;;;4.50;4.50;;;;;19.14;38.57;101434.13;4958113;28;45203;-74
2022/05/13 10:45:46;;;;;;;;;3.50;3.50;;;;;19.19;38.14;101424.00;4957007;28;45511;-76
2022/05/13 10:48:21;;;;;;;;;4.50;3.00;;;;;19.28;38.16;101431.41;4941533;28;46996;-76
2022/05/13 10:51:01;;;;;;;;;3.00;3.00;;;;;19.33;37.94;101412.44;4957082;28;45367;-75
2022/05/13 10:54:01;;;;;;;;;1.50;1.25;;;;;19.33;37.60;101423.97;4940980;28;45412;-75
2022/05/13 10:56:40;;;;;;;;;3.75;3.75;;;;;19.32;37.84;101416.94;4919999;28;45508;-75
2022/05/13 10:59:08;;;;;;;;;4.75;3.75;;;;;19.43;37.41;101421.56;4957817;28;46116;-74
2022/05/13 11:01:42;;;;;;;;;1.50;1.00;;;;;19.46;37.60;101415.19;4957973;28;45497;-75
2022/05/13 11:04:23;;;;;;;;;2.25;2.00;;;;;19.52;38.01;101417.47;4960856;28;45330;-75
2022/05/13 11:06:55;;;;;;;;;7.50;6.00;;;;;19.55;38.04;101418.09;4959272;28;45603;-75
2022/05/13 11:09:27;;;;;;;;;4.50;4.25;;;;;19.60;37.55;101409.81;4956775;28;47081;-75
2022/05/13 11:12:07;;;;;;;;;3.75;3.75;;;;;19.71;37.62;101419.78;4958140;28;45244;-74
2022/05/13 11:15:01;;;;;;;;;7.00;3.75;;;;;19.82;37.07;101414.59;4958329;28;45478;-75
2022/05/13 11:17:49;;;;;;;;;2.75;1.75;;;;;19.95;36.73;101408.47;4958363;28;45493;-75
2022/05/13 11:20:39;;;;;;;;;3.75;2.00;;;;;20.15;37.25;101415.16;4958466;28;46139;-76
2022/05/13 11:25:54;;;;;;;;;4.00;2.50;;;;;20.40;36.57;101403.63;4956512;28;46522;-75
2022/05/13 11:26:40;;;;;;;;;6.50;4.00;;;;;20.59;36.18;101402.34;4958221;28;45508;-74
2022/05/13 11:29:34;;;;;;;;;3.50;3.00;;;;;20.61;36.21;101394.22;4940721;28;45599;-73
2022/05/13 11:32:05;;;;;;;;;4.50;3.25;;;;;20.66;35.96;101398.28;4958017;28;45421;-76
2022/05/13 11:35:02;;;;;;;;;4.25;3.75;;;;;20.59;35.73;101388.97;4957591;28;45249;-74
2022/05/13 11:37:33;;;;;;;;;4.00;2.75;;;;;20.83;35.25;101407.00;4958435;28;45379;-74
2022/05/13 11:40:22;;;;;;;;;6.75;6.75;;;;;20.90;35.07;101404.72;4941472;28;45476;-76
2022/05/13 11:43:18;;;;;;;;;2.50;2.50;;;;;21.01;34.97;101405.66;4956343;28;47961;-77
2022/05/13 11:46:02;;;;;;;;;4.25;3.00;;;;;21.13;35.08;101409.28;4957822;28;45375;-75
2022/05/13 11:48:29;;;;;;;;;3.00;3.00;;;;;21.10;35.15;101409.50;4957369;28;45450;-76
2022/05/13 11:51:15;;;;;;;;;3.00;3.00;;;;;21.10;35.10;101400.63;4956570;28;45303;-74
2022/05/13 11:53:51;;;;;;;;;3.00;3.00;;;;;21.23;35.09;101396.09;4957125;28;47683;-75
2022/05/13 11:56:19;;;;;;;;;3.75;3.75;;;;;21.37;35.15;101402.25;4957671;28;45418;-75
2022/05/13 11:58:47;;;;;;;;;5.00;3.50;;;;;21.39;34.73;101382.47;4959455;28;45270;-75
2022/05/13 12:01:13;;;;;;;;;3.00;2.00;;;;;21.46;34.88;101388.19;4957140;28;45527;-75